sensor_id;sensor_type;location;lat;lon;timestamp;temperature;humidity
11532;DHT22;5822;51.000;5.874;2023-04-25T00:01:04;11.50;99.90
11532;DHT22;5822;51.000;5.874;2023-04-25T00:03:31;11.50;99.90
11532;DHT22;5822;51.000;5.874;2023-04-25T00:06:00;11.40;99.90
11532;DHT22;5822;51.000;5.874;2023-04-25T00:08:28;11.40;99.90
11532;DHT22;5822;51.000;5.874;2023-04-25T00:10:54;11.40;99.90
11532;DHT22;5822;51.000;5.874;2023-04-25T00:13:19;11.40;99.90
11532;DHT22;5822;51.000;5.874;2023-04-25T00:15:45;11.40;99.90
11532;DHT22;5822;51.000;5.874;2023-04-25T00:18:11;11.40;99.90
11532;DHT22;5822;51.000;5.874;2023-04-25T00:20:37;11.30;99.90
11532;DHT22;5822;51.000;5.874;2023-04-25T00:23:03;11.30;99.90
11532;DHT22;5822;51.000;5.874;2023-04-25T00:25:28;11.30;99.90
11532;DHT22;5822;51.000;5.874;2023-04-25T00:27:55;11.30;99.90
11532;DHT22;5822;51.000;5.874;2023-04-25T00:30:20;11.30;99.90
11532;DHT22;5822;51.000;5.874;2023-04-25T00:32:46;11.30;99.90
11532;DHT22;5822;51.000;5.874;2023-04-25T00:35:12;11.30;99.90
11532;DHT22;5822;51.000;5.874;2023-04-25T00:37:37;11.30;99.90
11532;DHT22;5822;51.000;5.874;2023-04-25T00:40:05;11.30;99.90
11532;DHT22;5822;51.000;5.874;2023-04-25T00:42:31;11.30;99.90
11532;DHT22;5822;51.000;5.874;2023-04-25T00:44:58;11.30;99.90
11532;DHT22;5822;51.000;5.874;2023-04-25T00:47:25;11.30;99.90
11532;DHT22;5822;51.000;5.874;2023-04-25T00:49:51;11.30;99.90
11532;DHT22;5822;51.000;5.874;2023-04-25T00:52:19;11.20;99.90
11532;DHT22;5822;51.000;5.874;2023-04-25T00:54:45;11.30;99.90
11532;DHT22;5822;51.000;5.874;2023-04-25T00:57:11;11.30;99.90
11532;DHT22;5822;51.000;5.874;2023-04-25T00:59:37;11.20;99.90
11532;DHT22;5822;51.000;5.874;2023-04-25T01:02:04;11.20;99.90
11532;DHT22;5822;51.000;5.874;2023-04-25T01:04:30;11.20;99.90
11532;DHT22;5822;51.000;5.874;2023-04-25T01:06:56;11.20;99.90
11532;DHT22;5822;51.000;5.874;2023-04-25T01:09:22;11.20;99.90
11532;DHT22;5822;51.000;5.874;2023-04-25T01:11:49;11.30;99.90
11532;DHT22;5822;51.000;5.874;2023-04-25T01:14:15;11.20;99.90
11532;DHT22;5822;51.000;5.874;2023-04-25T01:16:41;11.20;99.90
11532;DHT22;5822;51.000;5.874;2023-04-25T01:19:09;11.20;99.90
11532;DHT22;5822;51.000;5.874;2023-04-25T01:21:38;11.20;99.90
11532;DHT22;5822;51.000;5.874;2023-04-25T01:24:05;11.20;99.90
11532;DHT22;5822;51.000;5.874;2023-04-25T01:26:31;11.20;99.90
11532;DHT22;5822;51.000;5.874;2023-04-25T01:28:58;11.30;99.90
11532;DHT22;5822;51.000;5.874;2023-04-25T01:31:24;11.20;99.90
11532;DHT22;5822;51.000;5.874;2023-04-25T01:33:52;11.30;99.90
11532;DHT22;5822;51.000;5.874;2023-04-25T01:36:18;11.20;99.90
11532;DHT22;5822;51.000;5.874;2023-04-25T01:38:43;11.30;99.90
11532;DHT22;5822;51.000;5.874;2023-04-25T01:41:09;11.20;99.90
11532;DHT22;5822;51.000;5.874;2023-04-25T01:43:35;11.20;99.90
11532;DHT22;5822;51.000;5.874;2023-04-25T01:46:01;11.20;99.90
11532;DHT22;5822;51.000;5.874;2023-04-25T01:48:26;11.20;99.90
11532;DHT22;5822;51.000;5.874;2023-04-25T01:50:52;11.20;99.90
11532;DHT22;5822;51.000;5.874;2023-04-25T01:53:18;11.20;99.90
11532;DHT22;5822;51.000;5.874;2023-04-25T01:55:43;11.10;99.90
11532;DHT22;5822;51.000;5.874;2023-04-25T01:58:09;11.10;99.90
11532;DHT22;5822;51.000;5.874;2023-04-25T02:00:37;11.10;99.90
11532;DHT22;5822;51.000;5.874;2023-04-25T02:03:04;11.10;99.90
11532;DHT22;5822;51.000;5.874;2023-04-25T02:05:38;11.10;99.90
11532;DHT22;5822;51.000;5.874;2023-04-25T02:08:05;11.10;99.90
11532;DHT22;5822;51.000;5.874;2023-04-25T02:10:31;11.10;99.90
11532;DHT22;5822;51.000;5.874;2023-04-25T02:12:57;11.00;99.90
11532;DHT22;5822;51.000;5.874;2023-04-25T02:15:23;10.90;99.90
11532;DHT22;5822;51.000;5.874;2023-04-25T02:17:49;10.90;99.90
11532;DHT22;5822;51.000;5.874;2023-04-25T02:20:15;10.90;99.90
11532;DHT22;5822;51.000;5.874;2023-04-25T02:22:45;10.90;99.90
11532;DHT22;5822;51.000;5.874;2023-04-25T02:25:11;10.90;99.90
11532;DHT22;5822;51.000;5.874;2023-04-25T02:27:37;10.90;99.90
11532;DHT22;5822;51.000;5.874;2023-04-25T02:30:03;10.80;99.90
11532;DHT22;5822;51.000;5.874;2023-04-25T02:32:30;10.70;99.90
11532;DHT22;5822;51.000;5.874;2023-04-25T02:34:55;10.90;99.90
11532;DHT22;5822;51.000;5.874;2023-04-25T02:37:24;10.90;99.90
11532;DHT22;5822;51.000;5.874;2023-04-25T02:39:49;10.90;99.90
11532;DHT22;5822;51.000;5.874;2023-04-25T02:42:15;10.80;99.90
11532;DHT22;5822;51.000;5.874;2023-04-25T02:44:41;10.80;99.90
11532;DHT22;5822;51.000;5.874;2023-04-25T02:47:06;10.80;99.90
11532;DHT22;5822;51.000;5.874;2023-04-25T02:49:32;10.90;99.90
11532;DHT22;5822;51.000;5.874;2023-04-25T02:51:58;10.80;99.90
11532;DHT22;5822;51.000;5.874;2023-04-25T02:54:23;10.80;99.90
11532;DHT22;5822;51.000;5.874;2023-04-25T02:56:49;10.90;99.90
11532;DHT22;5822;51.000;5.874;2023-04-25T02:59:15;10.80;99.90
11532;DHT22;5822;51.000;5.874;2023-04-25T03:01:40;10.80;99.90
11532;DHT22;5822;51.000;5.874;2023-04-25T03:04:06;10.80;99.90
11532;DHT22;5822;51.000;5.874;2023-04-25T03:06:32;10.90;99.90
11532;DHT22;5822;51.000;5.874;2023-04-25T03:08:57;10.90;99.90
11532;DHT22;5822;51.000;5.874;2023-04-25T03:11:25;10.90;99.90
11532;DHT22;5822;51.000;5.874;2023-04-25T03:13:50;10.90;99.90
11532;DHT22;5822;51.000;5.874;2023-04-25T03:16:16;10.90;99.90
11532;DHT22;5822;51.000;5.874;2023-04-25T03:18:42;10.90;99.90
11532;DHT22;5822;51.000;5.874;2023-04-25T03:21:08;10.90;99.90
11532;DHT22;5822;51.000;5.874;2023-04-25T03:23:33;10.90;99.90
11532;DHT22;5822;51.000;5.874;2023-04-25T03:25:59;10.90;99.90
11532;DHT22;5822;51.000;5.874;2023-04-25T03:28:25;10.90;99.90
11532;DHT22;5822;51.000;5.874;2023-04-25T03:30:50;10.90;99.90
11532;DHT22;5822;51.000;5.874;2023-04-25T03:33:16;11.00;99.90
11532;DHT22;5822;51.000;5.874;2023-04-25T03:35:42;11.00;99.90
11532;DHT22;5822;51.000;5.874;2023-04-25T03:38:08;11.00;99.90
11532;DHT22;5822;51.000;5.874;2023-04-25T03:40:34;10.90;99.90
11532;DHT22;5822;51.000;5.874;2023-04-25T03:42:59;10.90;99.90
11532;DHT22;5822;51.000;5.874;2023-04-25T03:45:25;10.90;99.90
11532;DHT22;5822;51.000;5.874;2023-04-25T03:47:51;10.90;99.90
11532;DHT22;5822;51.000;5.874;2023-04-25T03:50:16;10.90;99.90
11532;DHT22;5822;51.000;5.874;2023-04-25T03:52:43;10.90;99.90
11532;DHT22;5822;51.000;5.874;2023-04-25T03:55:09;10.80;99.90
11532;DHT22;5822;51.000;5.874;2023-04-25T03:57:35;10.80;99.90
11532;DHT22;5822;51.000;5.874;2023-04-25T04:00:00;10.80;99.90
11532;DHT22;5822;51.000;5.874;2023-04-25T04:02:26;10.80;99.90
11532;DHT22;5822;51.000;5.874;2023-04-25T04:04:52;10.80;99.90
11532;DHT22;5822;51.000;5.874;2023-04-25T04:07:17;10.90;99.90
11532;DHT22;5822;51.000;5.874;2023-04-25T04:09:43;10.80;99.90
11532;DHT22;5822;51.000;5.874;2023-04-25T04:12:09;10.90;99.90
11532;DHT22;5822;51.000;5.874;2023-04-25T04:14:34;10.90;99.90
11532;DHT22;5822;51.000;5.874;2023-04-25T04:17:00;10.90;99.90
11532;DHT22;5822;51.000;5.874;2023-04-25T04:19:26;10.80;99.90
11532;DHT22;5822;51.000;5.874;2023-04-25T04:21:51;10.80;99.90
11532;DHT22;5822;51.000;5.874;2023-04-25T04:24:17;10.80;99.90
11532;DHT22;5822;51.000;5.874;2023-04-25T04:26:43;10.80;99.90
11532;DHT22;5822;51.000;5.874;2023-04-25T04:29:10;10.80;99.90
11532;DHT22;5822;51.000;5.874;2023-04-25T04:31:36;10.70;99.90
11532;DHT22;5822;51.000;5.874;2023-04-25T04:34:02;10.70;99.90
11532;DHT22;5822;51.000;5.874;2023-04-25T04:36:29;10.70;99.90
11532;DHT22;5822;51.000;5.874;2023-04-25T04:38:55;10.80;99.90
11532;DHT22;5822;51.000;5.874;2023-04-25T04:41:22;10.70;99.90
11532;DHT22;5822;51.000;5.874;2023-04-25T04:43:47;10.80;99.90
11532;DHT22;5822;51.000;5.874;2023-04-25T04:46:13;10.70;99.90
11532;DHT22;5822;51.000;5.874;2023-04-25T04:48:39;10.70;99.90
11532;DHT22;5822;51.000;5.874;2023-04-25T04:51:06;10.70;99.90
11532;DHT22;5822;51.000;5.874;2023-04-25T04:53:32;10.60;99.90
11532;DHT22;5822;51.000;5.874;2023-04-25T04:55:57;10.70;99.90
11532;DHT22;5822;51.000;5.874;2023-04-25T04:58:23;10.70;99.90
11532;DHT22;5822;51.000;5.874;2023-04-25T05:00:49;10.60;99.90
11532;DHT22;5822;51.000;5.874;2023-04-25T05:03:15;10.60;99.90
11532;DHT22;5822;51.000;5.874;2023-04-25T05:05:41;10.60;99.90
11532;DHT22;5822;51.000;5.874;2023-04-25T05:08:07;10.60;99.90
11532;DHT22;5822;51.000;5.874;2023-04-25T05:10:33;10.70;99.90
11532;DHT22;5822;51.000;5.874;2023-04-25T05:12:59;10.60;99.90
11532;DHT22;5822;51.000;5.874;2023-04-25T05:15:24;10.60;99.90
11532;DHT22;5822;51.000;5.874;2023-04-25T05:17:50;10.60;99.90
11532;DHT22;5822;51.000;5.874;2023-04-25T05:20:16;10.50;99.90
11532;DHT22;5822;51.000;5.874;2023-04-25T05:22:43;10.60;99.90
11532;DHT22;5822;51.000;5.874;2023-04-25T05:25:09;10.50;99.90
11532;DHT22;5822;51.000;5.874;2023-04-25T05:27:35;10.50;99.90
11532;DHT22;5822;51.000;5.874;2023-04-25T05:30:01;10.60;99.90
11532;DHT22;5822;51.000;5.874;2023-04-25T05:32:27;10.60;99.90
11532;DHT22;5822;51.000;5.874;2023-04-25T05:34:52;10.60;99.90
11532;DHT22;5822;51.000;5.874;2023-04-25T05:37:18;10.60;99.90
11532;DHT22;5822;51.000;5.874;2023-04-25T05:39:44;10.60;99.90
11532;DHT22;5822;51.000;5.874;2023-04-25T05:42:09;10.60;99.90
11532;DHT22;5822;51.000;5.874;2023-04-25T05:44:35;10.60;99.90
11532;DHT22;5822;51.000;5.874;2023-04-25T05:47:01;10.60;99.90
11532;DHT22;5822;51.000;5.874;2023-04-25T05:49:27;10.70;99.90
11532;DHT22;5822;51.000;5.874;2023-04-25T05:51:52;10.70;99.90
11532;DHT22;5822;51.000;5.874;2023-04-25T05:54:18;10.70;99.90
11532;DHT22;5822;51.000;5.874;2023-04-25T05:56:43;10.70;99.90
11532;DHT22;5822;51.000;5.874;2023-04-25T05:59:09;10.70;99.90
11532;DHT22;5822;51.000;5.874;2023-04-25T06:01:35;10.70;99.90
11532;DHT22;5822;51.000;5.874;2023-04-25T06:04:01;10.80;99.90
11532;DHT22;5822;51.000;5.874;2023-04-25T06:06:26;10.80;99.90
11532;DHT22;5822;51.000;5.874;2023-04-25T06:08:53;10.80;99.90
11532;DHT22;5822;51.000;5.874;2023-04-25T06:11:18;10.80;99.90
11532;DHT22;5822;51.000;5.874;2023-04-25T06:13:45;10.80;99.90
11532;DHT22;5822;51.000;5.874;2023-04-25T06:16:11;10.90;99.90
11532;DHT22;5822;51.000;5.874;2023-04-25T06:18:37;10.80;99.90
11532;DHT22;5822;51.000;5.874;2023-04-25T06:21:02;10.80;99.90
11532;DHT22;5822;51.000;5.874;2023-04-25T06:23:28;10.90;99.90
11532;DHT22;5822;51.000;5.874;2023-04-25T06:25:54;10.90;99.90
11532;DHT22;5822;51.000;5.874;2023-04-25T06:28:19;10.80;99.90
11532;DHT22;5822;51.000;5.874;2023-04-25T06:30:47;10.90;99.90
11532;DHT22;5822;51.000;5.874;2023-04-25T06:33:12;10.90;99.90
11532;DHT22;5822;51.000;5.874;2023-04-25T06:35:38;10.90;99.90
11532;DHT22;5822;51.000;5.874;2023-04-25T06:38:04;10.90;99.90
11532;DHT22;5822;51.000;5.874;2023-04-25T06:40:29;10.90;99.90
11532;DHT22;5822;51.000;5.874;2023-04-25T06:42:55;10.80;99.90
11532;DHT22;5822;51.000;5.874;2023-04-25T06:45:21;10.80;99.90
11532;DHT22;5822;51.000;5.874;2023-04-25T06:47:46;10.90;99.90
11532;DHT22;5822;51.000;5.874;2023-04-25T06:50:12;10.80;99.90
11532;DHT22;5822;51.000;5.874;2023-04-25T06:52:37;10.80;99.90
11532;DHT22;5822;51.000;5.874;2023-04-25T06:55:03;10.90;99.90
11532;DHT22;5822;51.000;5.874;2023-04-25T06:57:30;10.90;99.90
11532;DHT22;5822;51.000;5.874;2023-04-25T06:59:55;11.00;99.90
11532;DHT22;5822;51.000;5.874;2023-04-25T07:02:21;11.10;99.90
11532;DHT22;5822;51.000;5.874;2023-04-25T07:04:47;11.10;99.90
11532;DHT22;5822;51.000;5.874;2023-04-25T07:07:13;11.10;99.90
11532;DHT22;5822;51.000;5.874;2023-04-25T07:09:39;11.10;99.90
11532;DHT22;5822;51.000;5.874;2023-04-25T07:12:04;11.00;99.90
11532;DHT22;5822;51.000;5.874;2023-04-25T07:14:30;11.00;99.90
11532;DHT22;5822;51.000;5.874;2023-04-25T07:16:56;11.00;99.90
11532;DHT22;5822;51.000;5.874;2023-04-25T07:19:22;11.00;99.90
11532;DHT22;5822;51.000;5.874;2023-04-25T07:21:52;11.10;99.90
11532;DHT22;5822;51.000;5.874;2023-04-25T07:24:17;11.10;99.90
11532;DHT22;5822;51.000;5.874;2023-04-25T07:26:43;11.10;99.90
11532;DHT22;5822;51.000;5.874;2023-04-25T07:29:09;11.20;99.90
11532;DHT22;5822;51.000;5.874;2023-04-25T07:31:35;11.20;99.90
11532;DHT22;5822;51.000;5.874;2023-04-25T07:34:01;11.30;99.90
11532;DHT22;5822;51.000;5.874;2023-04-25T07:36:26;11.30;99.90
11532;DHT22;5822;51.000;5.874;2023-04-25T07:38:52;11.30;99.90
11532;DHT22;5822;51.000;5.874;2023-04-25T07:41:18;11.30;99.90
11532;DHT22;5822;51.000;5.874;2023-04-25T07:43:43;11.40;99.90
11532;DHT22;5822;51.000;5.874;2023-04-25T07:46:09;11.40;99.90
11532;DHT22;5822;51.000;5.874;2023-04-25T07:48:35;11.40;99.90
11532;DHT22;5822;51.000;5.874;2023-04-25T07:51:00;11.40;99.90
11532;DHT22;5822;51.000;5.874;2023-04-25T07:53:26;11.40;99.90
11532;DHT22;5822;51.000;5.874;2023-04-25T07:55:51;11.40;99.90
11532;DHT22;5822;51.000;5.874;2023-04-25T07:58:17;11.40;99.90
11532;DHT22;5822;51.000;5.874;2023-04-25T08:00:47;11.40;99.90
11532;DHT22;5822;51.000;5.874;2023-04-25T08:03:12;11.40;99.90
11532;DHT22;5822;51.000;5.874;2023-04-25T08:05:38;11.40;99.90
11532;DHT22;5822;51.000;5.874;2023-04-25T08:08:04;11.40;99.90
11532;DHT22;5822;51.000;5.874;2023-04-25T08:10:32;11.40;99.90
11532;DHT22;5822;51.000;5.874;2023-04-25T08:12:58;11.50;99.90
11532;DHT22;5822;51.000;5.874;2023-04-25T08:15:24;11.40;99.90
11532;DHT22;5822;51.000;5.874;2023-04-25T08:17:50;11.40;99.90
11532;DHT22;5822;51.000;5.874;2023-04-25T08:20:16;11.50;99.90
11532;DHT22;5822;51.000;5.874;2023-04-25T08:22:42;11.50;99.90
11532;DHT22;5822;51.000;5.874;2023-04-25T08:25:08;11.40;99.90
11532;DHT22;5822;51.000;5.874;2023-04-25T08:27:33;11.40;99.90
11532;DHT22;5822;51.000;5.874;2023-04-25T08:29:59;11.40;99.90
11532;DHT22;5822;51.000;5.874;2023-04-25T08:32:25;11.50;99.90
11532;DHT22;5822;51.000;5.874;2023-04-25T08:34:51;11.50;99.90
11532;DHT22;5822;51.000;5.874;2023-04-25T08:37:19;11.50;99.90
11532;DHT22;5822;51.000;5.874;2023-04-25T08:39:45;11.60;99.90
11532;DHT22;5822;51.000;5.874;2023-04-25T08:42:14;11.60;99.90
11532;DHT22;5822;51.000;5.874;2023-04-25T08:44:43;11.60;99.90
11532;DHT22;5822;51.000;5.874;2023-04-25T08:47:09;11.70;99.90
11532;DHT22;5822;51.000;5.874;2023-04-25T08:49:36;11.70;99.90
11532;DHT22;5822;51.000;5.874;2023-04-25T08:52:04;11.60;99.90
11532;DHT22;5822;51.000;5.874;2023-04-25T08:54:32;11.60;99.90
11532;DHT22;5822;51.000;5.874;2023-04-25T08:57:00;11.70;99.90
11532;DHT22;5822;51.000;5.874;2023-04-25T08:59:30;11.70;99.90
11532;DHT22;5822;51.000;5.874;2023-04-25T09:01:57;11.60;99.90
11532;DHT22;5822;51.000;5.874;2023-04-25T09:04:23;11.60;99.90
11532;DHT22;5822;51.000;5.874;2023-04-25T09:06:48;11.70;99.90
11532;DHT22;5822;51.000;5.874;2023-04-25T09:09:14;11.60;99.90
11532;DHT22;5822;51.000;5.874;2023-04-25T09:11:40;11.70;99.90
11532;DHT22;5822;51.000;5.874;2023-04-25T09:14:17;11.70;99.90
11532;DHT22;5822;51.000;5.874;2023-04-25T09:16:58;11.70;99.90
11532;DHT22;5822;51.000;5.874;2023-04-25T09:19:32;11.70;99.90
11532;DHT22;5822;51.000;5.874;2023-04-25T09:22:00;11.80;99.90
11532;DHT22;5822;51.000;5.874;2023-04-25T09:27:10;11.90;99.90
11532;DHT22;5822;51.000;5.874;2023-04-25T09:29:38;11.80;99.90
11532;DHT22;5822;51.000;5.874;2023-04-25T09:34:41;11.90;99.90
11532;DHT22;5822;51.000;5.874;2023-04-25T09:37:11;11.90;99.90
11532;DHT22;5822;51.000;5.874;2023-04-25T09:39:38;11.90;99.90
11532;DHT22;5822;51.000;5.874;2023-04-25T09:42:09;11.90;99.90
11532;DHT22;5822;51.000;5.874;2023-04-25T09:44:36;11.90;99.90
11532;DHT22;5822;51.000;5.874;2023-04-25T09:47:01;12.00;99.90
11532;DHT22;5822;51.000;5.874;2023-04-25T09:49:28;12.00;99.90
11532;DHT22;5822;51.000;5.874;2023-04-25T09:51:57;12.10;99.90
11532;DHT22;5822;51.000;5.874;2023-04-25T09:54:24;12.10;99.90
11532;DHT22;5822;51.000;5.874;2023-04-25T09:56:52;12.10;99.90
11532;DHT22;5822;51.000;5.874;2023-04-25T09:59:22;12.00;99.90
11532;DHT22;5822;51.000;5.874;2023-04-25T10:01:52;11.90;99.90
11532;DHT22;5822;51.000;5.874;2023-04-25T10:04:24;11.90;99.90
11532;DHT22;5822;51.000;5.874;2023-04-25T10:06:53;11.90;99.90
11532;DHT22;5822;51.000;5.874;2023-04-25T10:09:25;11.90;99.90
11532;DHT22;5822;51.000;5.874;2023-04-25T10:11:51;12.00;99.90
11532;DHT22;5822;51.000;5.874;2023-04-25T10:14:18;12.10;99.90
11532;DHT22;5822;51.000;5.874;2023-04-25T10:16:45;12.10;99.90
11532;DHT22;5822;51.000;5.874;2023-04-25T10:19:11;12.10;99.90
11532;DHT22;5822;51.000;5.874;2023-04-25T10:21:46;12.20;99.90
11532;DHT22;5822;51.000;5.874;2023-04-25T10:24:14;12.10;99.90
11532;DHT22;5822;51.000;5.874;2023-04-25T10:26:40;12.00;99.90
11532;DHT22;5822;51.000;5.874;2023-04-25T10:29:06;12.00;99.90
11532;DHT22;5822;51.000;5.874;2023-04-25T10:31:32;11.90;99.90
11532;DHT22;5822;51.000;5.874;2023-04-25T10:34:00;11.90;99.90
11532;DHT22;5822;51.000;5.874;2023-04-25T10:36:31;12.00;99.90
11532;DHT22;5822;51.000;5.874;2023-04-25T10:39:05;12.00;99.90
11532;DHT22;5822;51.000;5.874;2023-04-25T10:41:56;12.00;99.90
11532;DHT22;5822;51.000;5.874;2023-04-25T10:44:26;12.00;99.90
11532;DHT22;5822;51.000;5.874;2023-04-25T10:46:52;12.00;99.90
11532;DHT22;5822;51.000;5.874;2023-04-25T10:49:44;12.00;99.90
11532;DHT22;5822;51.000;5.874;2023-04-25T10:52:17;12.00;99.90
11532;DHT22;5822;51.000;5.874;2023-04-25T10:57:36;12.00;99.90
11532;DHT22;5822;51.000;5.874;2023-04-25T11:00:05;12.10;99.90
11532;DHT22;5822;51.000;5.874;2023-04-25T11:02:32;12.10;99.90
11532;DHT22;5822;51.000;5.874;2023-04-25T11:05:02;12.10;99.90
11532;DHT22;5822;51.000;5.874;2023-04-25T11:07:50;12.10;99.90
11532;DHT22;5822;51.000;5.874;2023-04-25T11:10:17;12.30;99.90
11532;DHT22;5822;51.000;5.874;2023-04-25T11:12:44;12.20;99.90
11532;DHT22;5822;51.000;5.874;2023-04-25T11:15:10;12.30;99.90
11532;DHT22;5822;51.000;5.874;2023-04-25T11:17:35;12.30;99.90
11532;DHT22;5822;51.000;5.874;2023-04-25T11:20:01;12.40;99.90
11532;DHT22;5822;51.000;5.874;2023-04-25T11:22:31;12.40;99.90
11532;DHT22;5822;51.000;5.874;2023-04-25T11:24:57;12.50;99.90
11532;DHT22;5822;51.000;5.874;2023-04-25T11:27:23;12.50;99.90
11532;DHT22;5822;51.000;5.874;2023-04-25T11:29:50;12.60;99.90
11532;DHT22;5822;51.000;5.874;2023-04-25T11:32:17;12.60;99.90
11532;DHT22;5822;51.000;5.874;2023-04-25T11:34:43;12.60;99.90
11532;DHT22;5822;51.000;5.874;2023-04-25T11:37:10;12.60;99.90
11532;DHT22;5822;51.000;5.874;2023-04-25T11:39:37;12.70;99.90
11532;DHT22;5822;51.000;5.874;2023-04-25T11:42:04;12.70;99.90
11532;DHT22;5822;51.000;5.874;2023-04-25T11:44:30;12.90;99.90
11532;DHT22;5822;51.000;5.874;2023-04-25T11:46:55;12.80;99.90
11532;DHT22;5822;51.000;5.874;2023-04-25T11:49:21;12.80;99.90
11532;DHT22;5822;51.000;5.874;2023-04-25T11:51:48;12.80;99.90
11532;DHT22;5822;51.000;5.874;2023-04-25T11:54:14;12.80;99.90
11532;DHT22;5822;51.000;5.874;2023-04-25T11:56:44;12.80;99.90
11532;DHT22;5822;51.000;5.874;2023-04-25T11:59:10;12.80;99.90
11532;DHT22;5822;51.000;5.874;2023-04-25T12:01:38;12.80;99.90
11532;DHT22;5822;51.000;5.874;2023-04-25T12:04:22;12.90;99.90
11532;DHT22;5822;51.000;5.874;2023-04-25T12:06:50;12.90;99.90
11532;DHT22;5822;51.000;5.874;2023-04-25T12:09:18;12.80;99.90
11532;DHT22;5822;51.000;5.874;2023-04-25T12:11:48;12.90;99.90
11532;DHT22;5822;51.000;5.874;2023-04-25T12:14:25;12.90;99.90
11532;DHT22;5822;51.000;5.874;2023-04-25T12:16:52;12.90;99.90
11532;DHT22;5822;51.000;5.874;2023-04-25T12:19:21;12.90;99.90
11532;DHT22;5822;51.000;5.874;2023-04-25T12:21:48;13.00;99.90
11532;DHT22;5822;51.000;5.874;2023-04-25T12:24:24;12.90;99.90
11532;DHT22;5822;51.000;5.874;2023-04-25T12:27:02;12.90;99.90
11532;DHT22;5822;51.000;5.874;2023-04-25T12:29:30;13.00;99.90
11532;DHT22;5822;51.000;5.874;2023-04-25T12:31:56;13.10;99.90
11532;DHT22;5822;51.000;5.874;2023-04-25T12:34:22;13.10;99.90
11532;DHT22;5822;51.000;5.874;2023-04-25T12:36:49;13.10;99.90
11532;DHT22;5822;51.000;5.874;2023-04-25T12:39:16;13.20;99.90
11532;DHT22;5822;51.000;5.874;2023-04-25T12:41:42;13.20;99.90
11532;DHT22;5822;51.000;5.874;2023-04-25T12:44:08;13.20;99.90
11532;DHT22;5822;51.000;5.874;2023-04-25T12:46:33;13.20;99.90
11532;DHT22;5822;51.000;5.874;2023-04-25T12:49:03;13.10;99.90
11532;DHT22;5822;51.000;5.874;2023-04-25T12:51:29;13.10;99.90
11532;DHT22;5822;51.000;5.874;2023-04-25T12:53:55;12.90;99.90
11532;DHT22;5822;51.000;5.874;2023-04-25T12:56:20;12.80;99.90
11532;DHT22;5822;51.000;5.874;2023-04-25T12:58:46;12.70;99.90
11532;DHT22;5822;51.000;5.874;2023-04-25T13:01:13;12.60;99.90
11532;DHT22;5822;51.000;5.874;2023-04-25T13:03:39;12.50;99.90
11532;DHT22;5822;51.000;5.874;2023-04-25T13:06:06;12.50;99.90
11532;DHT22;5822;51.000;5.874;2023-04-25T13:08:32;12.60;99.90
11532;DHT22;5822;51.000;5.874;2023-04-25T13:10:58;12.70;99.90
11532;DHT22;5822;51.000;5.874;2023-04-25T13:13:23;12.70;99.90
11532;DHT22;5822;51.000;5.874;2023-04-25T13:15:49;12.70;99.90
11532;DHT22;5822;51.000;5.874;2023-04-25T13:18:15;12.80;99.90
11532;DHT22;5822;51.000;5.874;2023-04-25T13:20:41;12.80;99.90
11532;DHT22;5822;51.000;5.874;2023-04-25T13:23:06;12.90;99.90
11532;DHT22;5822;51.000;5.874;2023-04-25T13:25:32;13.00;99.90
11532;DHT22;5822;51.000;5.874;2023-04-25T13:27:58;13.00;99.90
11532;DHT22;5822;51.000;5.874;2023-04-25T13:30:24;13.10;99.90
11532;DHT22;5822;51.000;5.874;2023-04-25T13:32:49;13.00;99.90
11532;DHT22;5822;51.000;5.874;2023-04-25T13:35:16;12.90;99.90
11532;DHT22;5822;51.000;5.874;2023-04-25T13:37:42;13.00;99.90
11532;DHT22;5822;51.000;5.874;2023-04-25T13:40:10;13.20;99.90
11532;DHT22;5822;51.000;5.874;2023-04-25T13:42:37;13.40;99.90
11532;DHT22;5822;51.000;5.874;2023-04-25T13:45:03;13.40;99.90
11532;DHT22;5822;51.000;5.874;2023-04-25T13:47:29;13.40;99.90
11532;DHT22;5822;51.000;5.874;2023-04-25T13:49:56;13.50;99.90
11532;DHT22;5822;51.000;5.874;2023-04-25T13:52:22;13.70;99.90
11532;DHT22;5822;51.000;5.874;2023-04-25T13:54:49;13.80;99.90
11532;DHT22;5822;51.000;5.874;2023-04-25T13:57:16;13.80;99.90
11532;DHT22;5822;51.000;5.874;2023-04-25T13:59:42;13.90;99.90
11532;DHT22;5822;51.000;5.874;2023-04-25T14:02:07;14.10;99.90
11532;DHT22;5822;51.000;5.874;2023-04-25T14:04:33;14.10;99.90
11532;DHT22;5822;51.000;5.874;2023-04-25T14:06:59;14.00;99.90
11532;DHT22;5822;51.000;5.874;2023-04-25T14:09:25;13.90;99.90
11532;DHT22;5822;51.000;5.874;2023-04-25T14:11:52;13.80;99.90
11532;DHT22;5822;51.000;5.874;2023-04-25T14:14:18;13.80;99.90
11532;DHT22;5822;51.000;5.874;2023-04-25T14:16:44;13.70;99.90
11532;DHT22;5822;51.000;5.874;2023-04-25T14:19:11;13.60;99.90
11532;DHT22;5822;51.000;5.874;2023-04-25T14:21:36;13.60;99.90
11532;DHT22;5822;51.000;5.874;2023-04-25T14:24:02;13.60;99.90
11532;DHT22;5822;51.000;5.874;2023-04-25T14:26:27;13.50;99.90
11532;DHT22;5822;51.000;5.874;2023-04-25T14:28:53;13.50;99.90
11532;DHT22;5822;51.000;5.874;2023-04-25T14:31:19;13.40;99.90
11532;DHT22;5822;51.000;5.874;2023-04-25T14:33:45;13.50;99.90
11532;DHT22;5822;51.000;5.874;2023-04-25T14:36:10;13.60;99.90
11532;DHT22;5822;51.000;5.874;2023-04-25T14:38:36;13.80;99.90
11532;DHT22;5822;51.000;5.874;2023-04-25T14:41:02;13.90;99.90
11532;DHT22;5822;51.000;5.874;2023-04-25T14:43:28;14.00;99.90
11532;DHT22;5822;51.000;5.874;2023-04-25T14:45:54;14.00;99.90
11532;DHT22;5822;51.000;5.874;2023-04-25T14:48:19;14.00;99.90
11532;DHT22;5822;51.000;5.874;2023-04-25T14:50:46;14.00;99.90
11532;DHT22;5822;51.000;5.874;2023-04-25T14:53:12;14.10;99.90
11532;DHT22;5822;51.000;5.874;2023-04-25T14:55:38;14.30;99.90
11532;DHT22;5822;51.000;5.874;2023-04-25T14:58:04;14.30;99.90
11532;DHT22;5822;51.000;5.874;2023-04-25T15:00:30;14.30;99.90
11532;DHT22;5822;51.000;5.874;2023-04-25T15:02:57;14.20;99.90
11532;DHT22;5822;51.000;5.874;2023-04-25T15:05:25;14.10;99.90
11532;DHT22;5822;51.000;5.874;2023-04-25T15:07:51;14.00;99.90
11532;DHT22;5822;51.000;5.874;2023-04-25T15:10:18;13.90;99.90
11532;DHT22;5822;51.000;5.874;2023-04-25T15:12:44;13.80;99.90
11532;DHT22;5822;51.000;5.874;2023-04-25T15:15:11;13.80;99.90
11532;DHT22;5822;51.000;5.874;2023-04-25T15:17:43;13.70;99.90
11532;DHT22;5822;51.000;5.874;2023-04-25T15:20:10;13.70;99.90
11532;DHT22;5822;51.000;5.874;2023-04-25T15:22:43;13.70;99.90
11532;DHT22;5822;51.000;5.874;2023-04-25T15:25:10;13.70;99.90
11532;DHT22;5822;51.000;5.874;2023-04-25T15:27:37;13.80;99.90
11532;DHT22;5822;51.000;5.874;2023-04-25T15:30:07;14.00;99.90
11532;DHT22;5822;51.000;5.874;2023-04-25T15:32:33;14.10;99.90
11532;DHT22;5822;51.000;5.874;2023-04-25T15:35:01;14.20;99.90
11532;DHT22;5822;51.000;5.874;2023-04-25T15:37:28;14.30;99.90
11532;DHT22;5822;51.000;5.874;2023-04-25T15:40:02;14.30;99.90
11532;DHT22;5822;51.000;5.874;2023-04-25T15:42:45;14.20;99.90
11532;DHT22;5822;51.000;5.874;2023-04-25T15:45:13;14.10;99.90
11532;DHT22;5822;51.000;5.874;2023-04-25T15:47:40;14.10;99.90
11532;DHT22;5822;51.000;5.874;2023-04-25T15:50:07;14.00;99.90